Airfield :







YOU CAN JOIN US ON...

 
LOGIN :

Register | Disclaimer

   EN    FR    IT 

 









Legend :    VFR   Marginal VFR   IFR   Intensive IFR   Very Intensive IFR
Visi :
Ceiling :
>= 8 km
>= 3000ft
5 to 8 km
1000 to 3000 ft
1500m to 5 km
500 to 1000 ft
800 to 1500m
200 to 500 ft
< 800m
< 200 ft
Symbols :   Thunderstorms  Fog  Heavy snow  Heavy precipitations  Wind > 20 kt






- Airport Elevation : 335 ft
- IATA code : BTV


KBTV - Burlington International

CURRENT METAR :
  • 231654Z 24007KT 10SM SCT060 BKN100 16/03 A2984 RMK AO2 SLP105 T01610033

EXPIRED METARs :
  • 231554Z 25008KT 10SM FEW030 FEW090 16/07 A2984 RMK AO2 SLP105 T01560072
  • 231454Z 21004KT 10SM FEW012 SCT080 15/09 A2984 RMK AO2 SLP104 T01500089 53003

TAF KBTV
Valid from the 23 at 18:00 until the 24 at 18:00 UTC


231723Z 2318/2418 26008KT P6SM SCT050
FM240500 22007KT P6SM FEW100
FM240800 18006KT P6SM SKC
FM241500 20013KT P6SM SCT060



MET'MAP, your aeronautical weather chart ! - Copyright ORBIFLY December 2007 - Disclaimer

ORBIFLY MET'MAP TEAM :

Programming & Development : Alexandra Zaïnal
Concept & Development : Baudouin d'Aumeries
Co-Development & Prog : Marc-Olivier Méhu
Technical & hardware support : Manuel Goepfert

Contact : metmap@orbifly.com




SOURCES & CREDITS :

   NOAA